• Join FlightAware (Why Join?)
  • Login
  • US Flag 
12:55AM EDT


 

Airport Tracker/Info


-or-


 

Live Flight TrackerFlight Track Log ✈ ANT508 ✈ 03-Jul-2013 ✈ CYEG - CYXY

Flight Track Log - Related Links

Times and Time Zones

All times are in EDT time to prevent confusion due to time zone crossing. See the ANT508 flight status page for this flight to view local times or setup timezone preferences in your user account.

Time Position Orientation Groundspeed Altitude Reporting Facility
EDT Latitude Longitude Course Direction KTS MPH feet Rate Location/Type
04:39PM 53.3190 -113.6130 317° Northwest 182 209 3,700  Level FlightAware
04:40PM 53.3360 -113.6400 317° Northwest 218 251 4,500 2,820 Climbing FlightAware
04:40PM 53.3480 -113.6570 320° Northwest 213 245 5,600 2,760 Climbing FlightAware
04:40PM 53.3690 -113.6940 314° West 246 283 6,600 2,220 Climbing FlightAware
04:41PM 53.3780 -113.7190 301° West 252 290 7,300 3,420 Climbing FlightAware
04:41PM 53.3970 -113.7690 303° West 254 292 9,200 3,480 Climbing FlightAware
04:41PM 53.4030 -113.7850 302° West 256 295 9,700 2,040 Climbing FlightAware
04:42PM 53.4350 -113.8690 303° West 309 356 11,100 1,920 Climbing FlightAware
04:43PM 53.4670 -113.9530 303° West 341 392 12,400 2,220 Climbing FlightAware
04:43PM 53.4980 -114.0340 303° West 356 410 13,900 3,000 Climbing FlightAware
04:44PM 53.5330 -114.1260 303° West 349 402 16,200 3,060 Climbing FlightAware
04:45PM 53.5720 -114.2280 303° West 352 405 18,300 2,400 Climbing FlightAware
04:45PM 53.6030 -114.3110 302° West 367 422 19,400 2,160 Climbing FlightAware
04:46PM 53.6380 -114.4050 302° West 370 426 21,000 2,280 Climbing FlightAware
04:47PM 53.6810 -114.5200 302° West 377 434 22,700 2,040 Climbing FlightAware
04:47PM 53.7090 -114.5960 302° West 387 445 23,600 1,860 Climbing FlightAware
04:48PM 53.7570 -114.7250 302° West 393 452 25,200 2,100 Climbing FlightAware
04:49PM 53.7950 -114.8290 302° West 388 447 26,800 2,040 Climbing FlightAware
04:49PM 53.8230 -114.9050 302° West 392 451 27,600 1,320 Climbing FlightAware
04:50PM 53.8700 -115.0300 303° West 404 465 28,600 1,500 Climbing FlightAware
04:51PM 53.9060 -115.1310 301° West 400 460 29,800 1,980 Climbing FlightAware
04:51PM 53.9490 -115.2490 302° West 389 448 31,300 1,860 Climbing FlightAware
04:52PM 53.9980 -115.3840 302° West 381 438 32,900 1,500 Climbing FlightAware
04:53PM 54.0500 -115.5290 301° West 381 438 34,100 1,200 Climbing FlightAware
04:54PM 54.1010 -115.6700 302° West 382 440 35,100 1,020 Climbing FlightAware
04:55PM 54.1350 -115.7660 301° West 380 437 35,800 540 Climbing FlightAware
04:56PM 54.1900 -115.8890 307° West 384 442 36,000 60 Climbing FlightAware
04:57PM 54.2540 -116.0190 310° West 382 440 36,000  Level FlightAware
04:57PM 54.2880 -116.0900 309° West 382 440 36,000  Level FlightAware
04:58PM 54.3340 -116.1880 309° West 382 440 36,000  Level FlightAware
04:59PM 54.3870 -116.2960 310° West 382 440 36,000  Level FlightAware
05:00PM 54.4720 -116.4730 310° West 388 447 36,000  Level FlightAware
05:00PM 54.5070 -116.5460 310° West 388 447 36,000  Level FlightAware
05:01PM 54.5520 -116.6420 309° West 388 447 36,000  Level FlightAware
05:02PM 54.6330 -116.8120 310° West 36,000  Level FlightAware
05:04PM 54.7000 -117.0500 310° West 380 437 36,000  Level Edmonton Center
05:09PM 55.1040 -117.8350 310° West 384 442 36,000  Level FlightAware
05:10PM 55.1430 -117.9210 308° West 384 442 36,000  Level FlightAware
05:10PM 55.1740 -117.9920 307° West 384 442 36,000  Level FlightAware
05:11PM 55.2100 -118.0730 308° West 384 442 36,000  Level FlightAware
05:12PM 55.2550 -118.1730 308° West 384 442 36,000  Level FlightAware
05:13PM 55.2890 -118.2480 309° West 384 442 36,000  Level FlightAware
05:13PM 55.3340 -118.3510 308° West 384 442 36,000  Level FlightAware
05:14PM 55.3680 -118.4280 308° West 384 442 36,000  Level FlightAware
05:15PM 55.4333 -118.6500 308° West 380 437 36,000  Level Edmonton Center
05:16PM 55.4833 -118.8167 298° West 380 437 36,000  Level Edmonton Center
05:17PM 55.5500 -118.9667 308° West 380 437 36,000  Level Edmonton Center
05:18PM 55.6167 -119.1167 308° West 380 437 36,000  Level Edmonton Center
05:19PM 55.6667 -119.2667 301° West 380 437 36,000  Level Edmonton Center
05:20PM 55.7333 -119.4000 312° West 380 437 36,000  Level Edmonton Center
05:21PM 55.8000 -119.5500 308° West 380 437 36,000  Level Edmonton Center
05:22PM 55.8667 -119.7000 308° West 380 437 36,000  Level Edmonton Center
05:23PM 55.9167 -119.8500 301° West 380 437 36,000  Level Edmonton Center
05:24PM 55.9833 -120.0333 303° West 380 437 36,000  Level Edmonton Center
05:25PM 56.0500 -120.1833 309° West 380 437 36,000  Level Edmonton Center
05:26PM 56.1000 -120.3333 301° West 380 437 36,000  Level Edmonton Center
05:27PM 56.1667 -120.4833 309° West 380 437 36,000  Level Edmonton Center
05:28PM 56.2333 -120.6333 309° West 380 437 36,000  Level Edmonton Center
05:29PM 56.3000 -120.8167 303° West 380 437 36,000  Level Edmonton Center
05:30PM 56.3667 -120.9667 309° West 390 449 36,000  Level Edmonton Center
05:31PM 56.4333 -121.1167 309° West 390 449 36,000  Level Edmonton Center
05:32PM 56.4833 -121.2667 301° West 390 449 36,000  Level Edmonton Center
05:33PM 56.5667 -121.4667 307° West 390 449 36,000  Level Edmonton Center
05:34PM 56.6000 -121.6167 292° West 390 449 36,000  Level Edmonton Center
05:35PM 56.6667 -121.7667 309° West 390 449 36,000  Level Edmonton Center
05:36PM 56.7333 -121.9167 309° West 390 449 36,000  Level Edmonton Center
05:37PM 56.8000 -122.1167 301° West 400 460 36,000  Level Edmonton Center
05:38PM 56.8667 -122.2667 309° West 400 460 36,000  Level Edmonton Center
05:39PM 56.9333 -122.4667 301° West 400 460 36,000  Level Edmonton Center
05:40PM 56.9833 -122.6167 302° West 400 460 36,000  Level Edmonton Center
05:41PM 57.0500 -122.7833 306° West 410 472 36,000  Level Edmonton Center
05:42PM 57.1333 -122.9833 308° West 410 472 36,000  Level Edmonton Center
05:43PM 57.1833 -123.1333 302° West 410 472 36,000  Level Edmonton Center
05:44PM 57.2500 -123.3333 302° West 400 460 36,000  Level Edmonton Center
05:45PM 57.3167 -123.5000 307° West 410 472 36,000  Level Edmonton Center
05:46PM 57.3667 -123.6833 297° West 400 460 36,000  Level Edmonton Center
05:47PM 57.4333 -123.8500 307° West 410 472 36,000  Level Edmonton Center
05:48PM 57.4833 -124.0500 295° West 410 472 36,000  Level Edmonton Center
05:49PM 57.5500 -124.2000 310° West 400 460 36,000  Level Edmonton Center
05:50PM 57.6167 -124.4167 300° West 410 472 36,000  Level Edmonton Center
05:51PM 57.6667 -124.5667 302° West 410 472 36,000  Level Edmonton Center
05:52PM 57.7500 -124.7500 310° West 410 472 36,000  Level Edmonton Center
05:54PM 57.8858 -125.0567 302° West  Level FlightAware Approximate
06:01PM 58.2794 -126.2525 302° West  Level FlightAware Approximate
06:02PM 58.3346 -126.4257 301° West  Level FlightAware Approximate
06:03PM 58.3894 -126.5996 301° West  Level FlightAware Approximate
06:04PM 58.4440 -126.7739 301° West  Level FlightAware Approximate
06:05PM 58.4984 -126.9489 301° West  Level FlightAware Approximate
06:06PM 58.5525 -127.1243 301° West  Level FlightAware Approximate
06:07PM 58.6063 -127.3003 300° West  Level FlightAware Approximate
06:08PM 58.6600 -127.4768 300° West  Level FlightAware Approximate
06:09PM 58.7134 -127.6539 300° West  Level FlightAware Approximate
06:10PM 58.7665 -127.8315 300° West  Level FlightAware Approximate
06:11PM 58.8194 -128.0097 300° West  Level FlightAware Approximate
06:12PM 58.8721 -128.1884 300° West  Level FlightAware Approximate
06:13PM 58.9245 -128.3677 300° West  Level FlightAware Approximate
06:14PM 58.9766 -128.5475 299° West  Level FlightAware Approximate
06:15PM 59.0285 -128.7278 299° West  Level FlightAware Approximate
06:16PM 59.0802 -128.9087 299° West  Level FlightAware Approximate
06:17PM 59.1316 -129.0901 299° West  Level FlightAware Approximate
06:18PM 59.1828 -129.2721 299° West  Level FlightAware Approximate
06:19PM 59.2337 -129.4546 299° West  Level FlightAware Approximate
06:20PM 59.2843 -129.6377 298° West  Level FlightAware Approximate
06:21PM 59.3347 -129.8213 298° West  Level FlightAware Approximate
06:22PM 59.3847 -130.0055 297° West  Level FlightAware Approximate
06:23PM 59.4323 -130.1925 297° West  Level FlightAware Approximate
06:24PM 59.4797 -130.3800 296° West  Level FlightAware Approximate
06:25PM 59.5267 -130.5680 296° West  Level FlightAware Approximate
06:26PM 59.5735 -130.7565 296° West  Level FlightAware Approximate
06:27PM 59.6200 -130.9456 296° West  Level FlightAware Approximate
06:28PM 59.6721 -131.1291 301° West  Level FlightAware Approximate
06:29PM 59.7212 -131.3160 297° West  Level FlightAware Approximate
06:30PM 59.7687 -131.5050 297° West  Level FlightAware Approximate
06:31PM 59.8159 -131.6945 296° West  Level FlightAware Approximate
06:32PM 59.8629 -131.8845 296° West  Level FlightAware Approximate
06:33PM 59.9103 -132.0743 297° West  Level FlightAware Approximate
06:34PM 59.9579 -132.2642 297° West  Level FlightAware Approximate
06:35PM 60.0053 -132.4546 297° West  Level FlightAware Approximate
06:36PM 60.0515 -132.6464 295° West  Level FlightAware Approximate
06:37PM 60.0955 -132.8406 295° West  Level FlightAware Approximate
06:38PM 60.1393 -133.0353 294° West  Level FlightAware Approximate
06:39PM 60.1849 -133.2284 296° West  Level FlightAware Approximate
06:40PM 60.2310 -133.4215 296° West  Level FlightAware Approximate
06:41PM 60.2768 -133.6150 296° West  Level FlightAware Approximate
06:42PM 60.3223 -133.8091 295° West  Level FlightAware Approximate
06:43PM 60.3675 -134.0038 294° West  Level FlightAware Approximate
06:44PM 60.4112 -134.2001 294° West  Level FlightAware Approximate
06:45PM 60.4538 -134.3976 293° West  Level FlightAware Approximate
06:46PM 60.4953 -134.5965 293° West  Level FlightAware Approximate
06:47PM 60.5369 -134.7955 293° West  Level FlightAware Approximate
06:48PM 60.5787 -134.9945 293° West  Level FlightAware Approximate
06:49PM 60.6386 -135.1127 20° North  Level FlightAware Approximate
06:50PM 60.7000 -135.0667 20° North  Level FlightAware Approximate
06:51PM 60.7095 -135.0673 20° North  Level Estimated
06:52PM 60.7095 -135.0673 20° North  Level Estimated
06:53PM 60.7095 -135.0673 20° North  Level Estimated
06:54PM 60.7095 -135.0673 20° North  Level Estimated
06:55PM 60.7095 -135.0673 20° North  Level Estimated
06:56PM 60.7095 -135.0673 20° North  Level Estimated
06:57PM 60.7095 -135.0673 20° North  Level Estimated